Ellen — SIDM — position and weather

sailwx.info

Track history (hours):
 
Tides and Currents Weather Stations Pressure Air Temp Water Temp Dewpoint Dewpoint Depression Visibility Wind Speed Wind Dir Waves Ship Positions

Ellen (Sweden)

Ship's website: http://www.syellen.org/Skolsegelfartyget_Ellen/Hem.html

Last reported at 2017-Jun-27 09:58 UTC. Time now 2017-Jun-27 10:23 UTC.
Position N 59°14' E 018°25'.

Length 22 m; draft 2.2 m.

Type: Sailing vessel. MMSI: 265508900.

Date/timePositionNaut miles runAvg speedWind from/ knotsBaromVisibWave heightAir tempDewpointWater temp
2017-Jun-27 09:58N 59°14' E 018°25'1 0.9
2017-Jun-27 09:09N 59°14' E 018°24'0 0.0
2017-Jun-27 08:51N 59°14' E 018°24'0 0.0
2017-Jun-27 08:27N 59°14' E 018°24'0 0.0
2017-Jun-27 07:57N 59°14' E 018°24'0 0.0
2017-Jun-27 07:27N 59°14' E 018°24'0 0.0
2017-Jun-27 06:57N 59°14' E 018°24'0 0.0
2017-Jun-27 06:27N 59°14' E 018°24'0 0.0
2017-Jun-27 05:57N 59°14' E 018°24'0 0.0
2017-Jun-27 05:21N 59°14' E 018°24'0 0.0
2017-Jun-27 04:57N 59°14' E 018°24'0 0.0
2017-Jun-27 04:27N 59°14' E 018°24'0 0.0
2017-Jun-27 03:57N 59°14' E 018°24'0 0.0
2017-Jun-27 03:27N 59°14' E 018°24'0 0.0
2017-Jun-27 02:57N 59°14' E 018°24'0 0.0
2017-Jun-27 02:27N 59°14' E 018°24'0 0.0
2017-Jun-27 01:57N 59°14' E 018°24'0 0.0
2017-Jun-27 01:15N 59°14' E 018°24'0 0.0
2017-Jun-27 00:45N 59°14' E 018°24'0 0.0
2017-Jun-27 00:21N 59°14' E 018°24'0 0.0
2017-Jun-26 23:51N 59°14' E 018°24'0 0.0
2017-Jun-26 23:27N 59°14' E 018°24'0 0.0
2017-Jun-26 22:51N 59°14' E 018°24'0 0.0
2017-Jun-26 22:27N 59°14' E 018°24'0 0.0
2017-Jun-26 21:56N 59°14' E 018°24'0 0.0
2017-Jun-26 21:21N 59°14' E 018°24'0 0.0
2017-Jun-26 20:45N 59°14' E 018°24'0 0.0
2017-Jun-26 20:20N 59°14' E 018°24'0 0.0
2017-Jun-26 19:57N 59°14' E 018°24'0 0.0
2017-Jun-26 19:27N 59°14' E 018°24'0 0.0
2017-Jun-26 18:50N 59°14' E 018°24'0 0.0
2017-Jun-26 18:27N 59°14' E 018°24'0 0.0
2017-Jun-26 17:57N 59°14' E 018°24'0 0.0
2017-Jun-26 17:27N 59°14' E 018°24'0 0.0
2017-Jun-26 16:57N 59°14' E 018°24'0 0.0
2017-Jun-26 16:08N 59°14' E 018°24'0 0.0
2017-Jun-26 15:56N 59°14' E 018°24'0 0.0
2017-Jun-26 15:27N 59°14' E 018°24'0 0.0
2017-Jun-26 14:44N 59°14' E 018°24'0 0.0
2017-Jun-26 14:21N 59°14' E 018°24'0 0.0
2017-Jun-26 13:26N 59°14' E 018°24'0 0.0
2017-Jun-26 12:50N 59°14' E 018°24'1 1.9
2017-Jun-26 12:26N 59°14' E 018°25'1 3.0
2017-Jun-26 12:00N 59°15' E 018°24'2 4.6
2017-Jun-26 11:31N 59°16' E 018°21'2 3.7
2017-Jun-26 10:57N 59°18' E 018°19'2 3.4
2017-Jun-26 10:30N 59°18' E 018°16'3 5.1
2017-Jun-26 10:00N 59°20' E 018°13'1 1.5
2017-Jun-26 09:30N 59°20' E 018°12'3 5.7
2017-Jun-26 09:01N 59°19' E 018°06'0 0.0
2017-Jun-26 08:28N 59°19' E 018°06'0 0.0
2017-Jun-26 07:58N 59°19' E 018°06'0 0.0
2017-Jun-26 07:28N 59°19' E 018°06'0 0.0
2017-Jun-26 06:58N 59°19' E 018°06'0 0.0
2017-Jun-26 06:25N 59°19' E 018°06'0 0.0
2017-Jun-26 06:01N 59°19' E 018°06'0 0.0
2017-Jun-26 05:28N 59°19' E 018°06'0 0.0
2017-Jun-26 04:58N 59°19' E 018°06'0 0.0
2017-Jun-26 04:28N 59°19' E 018°06'0 0.0
2017-Jun-26 03:58N 59°19' E 018°06'0 0.0
2017-Jun-26 03:28N 59°19' E 018°06'0 0.0
2017-Jun-26 02:58N 59°19' E 018°06'0 0.0
2017-Jun-26 02:28N 59°19' E 018°06'0 0.0
2017-Jun-26 02:00N 59°19' E 018°06'0 0.0
2017-Jun-26 01:27N 59°19' E 018°06'0 0.0
2017-Jun-26 00:58N 59°19' E 018°06'0 0.0
2017-Jun-26 00:28N 59°19' E 018°06'0 0.0
2017-Jun-25 23:58N 59°19' E 018°06'0 0.0
2017-Jun-25 23:30N 59°19' E 018°06'0 0.0
2017-Jun-25 22:58N 59°19' E 018°06'0 0.0
2017-Jun-25 22:31N 59°19' E 018°06'0 0.0
2017-Jun-25 22:01N 59°19' E 018°06'0 0.0
2017-Jun-25 21:28N 59°19' E 018°06'0 0.0
2017-Jun-25 21:01N 59°19' E 018°06'0 0.0
2017-Jun-25 20:31N 59°19' E 018°06'0 0.0
2017-Jun-25 20:00N 59°19' E 018°06'0 0.0
2017-Jun-25 19:31N 59°19' E 018°06'0 0.0
2017-Jun-25 18:58N 59°19' E 018°06'0 0.0
2017-Jun-25 18:25N 59°19' E 018°06'0 0.0
2017-Jun-25 17:55N 59°19' E 018°06'0 0.0
2017-Jun-25 17:19N 59°19' E 018°06'0 0.0
2017-Jun-25 16:55N 59°19' E 018°06'0 0.0
2017-Jun-25 16:13N 59°19' E 018°06'0 0.0
2017-Jun-25 15:55N 59°19' E 018°06'0 0.0
2017-Jun-25 15:28N 59°19' E 018°06'0 0.0
2017-Jun-25 15:01N 59°19' E 018°06'0 0.0
2017-Jun-25 14:31N 59°19' E 018°06'0 0.0
2017-Jun-25 13:27N 59°19' E 018°06'0 0.0
2017-Jun-25 13:01N 59°19' E 018°06'0 0.0
2017-Jun-25 12:30N 59°19' E 018°06'0 0.0
2017-Jun-25 11:58N 59°19' E 018°06'0 0.0
2017-Jun-25 11:30N 59°19' E 018°06'0 0.0
2017-Jun-25 11:00N 59°19' E 018°06'0 0.0
2017-Jun-25 10:28N 59°19' E 018°06'0 0.0
2017-Jun-25 10:01N 59°19' E 018°06'0 0.0
2017-Jun-25 09:27N 59°19' E 018°06'0 0.0
2017-Jun-25 09:00N 59°19' E 018°06'0 0.0
2017-Jun-25 08:27N 59°19' E 018°06'0 0.0
2017-Jun-25 08:00N 59°19' E 018°06'0 0.0
2017-Jun-25 07:31N 59°19' E 018°06'0 0.0
2017-Jun-25 07:00N 59°19' E 018°06'0 0.0
2017-Jun-25 06:27N 59°19' E 018°06'0 0.0
2017-Jun-25 06:01N 59°19' E 018°06'0 0.0
2017-Jun-25 05:30N 59°19' E 018°06'0 0.0
2017-Jun-25 05:01N 59°19' E 018°06'0 0.0
2017-Jun-25 04:31N 59°19' E 018°06'0 0.0
2017-Jun-25 04:00N 59°19' E 018°06'0 0.0
2017-Jun-25 03:30N 59°19' E 018°06'0 0.0
2017-Jun-25 03:00N 59°19' E 018°06'0 0.0
2017-Jun-25 02:31N 59°19' E 018°06'0 0.0
2017-Jun-25 02:00N 59°19' E 018°06'0 0.0
2017-Jun-25 01:31N 59°19' E 018°06'0 0.0
2017-Jun-25 01:00N 59°19' E 018°06'0 0.0
2017-Jun-25 00:30N 59°19' E 018°06'0 0.0
2017-Jun-24 23:57N 59°19' E 018°06'0 0.0
2017-Jun-24 23:31N 59°19' E 018°06'0 0.0
2017-Jun-24 23:00N 59°19' E 018°06'0 0.0
2017-Jun-24 22:30N 59°19' E 018°06'0 0.0
2017-Jun-24 22:00N 59°19' E 018°06'0 0.0
2017-Jun-24 21:30N 59°19' E 018°06'0 0.0
2017-Jun-24 21:00N 59°19' E 018°06'0 0.0
2017-Jun-24 20:30N 59°19' E 018°06'0 0.0
2017-Jun-24 20:00N 59°19' E 018°06'0 0.0
2017-Jun-24 19:31N 59°19' E 018°06'0 0.0
2017-Jun-24 18:55N 59°19' E 018°06'0 0.0
2017-Jun-24 18:30N 59°19' E 018°06'0 0.0
2017-Jun-24 18:00N 59°19' E 018°06'0 0.0
2017-Jun-24 17:25N 59°19' E 018°06'0 0.0
2017-Jun-24 17:00N 59°19' E 018°06'0 0.0
2017-Jun-24 16:25N 59°19' E 018°06'0 0.0
2017-Jun-24 16:00N 59°19' E 018°06'0 0.0
2017-Jun-24 15:30N 59°19' E 018°06'0 0.0
2017-Jun-24 15:01N 59°19' E 018°06'0 0.0
2017-Jun-24 14:00N 59°19' E 018°06'0 0.0
2017-Jun-24 13:30N 59°19' E 018°06'0 0.0
2017-Jun-24 13:00N 59°19' E 018°06'0 0.0
2017-Jun-24 12:30N 59°19' E 018°06'0 0.0
2017-Jun-24 12:01N 59°19' E 018°06'0 0.0
2017-Jun-24 11:30N 59°19' E 018°06'0 0.0
2017-Jun-24 10:54N 59°19' E 018°06'0 0.0
2017-Jun-24 10:31N 59°19' E 018°06'0 0.0
2017-Jun-24 10:01N 59°19' E 018°06'0 0.0
2017-Jun-24 09:30N 59°19' E 018°06'0 0.0
2017-Jun-24 09:00N 59°19' E 018°06'0 0.0
2017-Jun-24 08:24N 59°19' E 018°06'0 0.0
2017-Jun-24 08:00N 59°19' E 018°06'0 0.0
2017-Jun-24 07:30N 59°19' E 018°06'0 0.0
2017-Jun-24 07:00N 59°19' E 018°06'0 0.0
2017-Jun-24 06:30N 59°19' E 018°06'0 0.0
2017-Jun-24 06:00N 59°19' E 018°06'0 0.0
2017-Jun-24 05:30N 59°19' E 018°06'0 0.0
2017-Jun-24 05:00N 59°19' E 018°06'0 0.0
2017-Jun-24 04:30N 59°19' E 018°06'0 0.0
2017-Jun-24 04:00N 59°19' E 018°06'0 0.0
2017-Jun-24 03:30N 59°19' E 018°06'0 0.0
2017-Jun-24 03:00N 59°19' E 018°06'0 0.0
2017-Jun-24 02:30N 59°19' E 018°06'0 0.0
2017-Jun-24 02:00N 59°19' E 018°06'0 0.0
2017-Jun-24 01:30N 59°19' E 018°06'0 0.0
2017-Jun-24 01:00N 59°19' E 018°06'0 0.0
2017-Jun-24 00:30N 59°19' E 018°06'0 0.0
2017-Jun-24 00:00N 59°19' E 018°06'0 0.0
2017-Jun-23 23:30N 59°19' E 018°06'0 0.0
2017-Jun-23 23:00N 59°19' E 018°06'0 0.0
2017-Jun-23 22:30N 59°19' E 018°06'0 0.0
2017-Jun-23 21:54N 59°19' E 018°06'0 0.0
2017-Jun-23 21:30N 59°19' E 018°06'0 0.0
2017-Jun-23 21:00N 59°19' E 018°06'0 0.0
2017-Jun-23 20:24N 59°19' E 018°06'0 0.0
2017-Jun-23 20:00N 59°19' E 018°06'0 0.0
2017-Jun-23 19:30N 59°19' E 018°06'0 0.0
2017-Jun-23 19:00N 59°19' E 018°06'0 0.0
2017-Jun-23 18:30N 59°19' E 018°06'0 0.0
2017-Jun-23 18:00N 59°19' E 018°06'0 0.0
2017-Jun-23 17:30N 59°19' E 018°06'0 0.0
2017-Jun-23 17:00N 59°19' E 018°06'0 0.0
2017-Jun-23 16:30N 59°19' E 018°06'0 0.0
2017-Jun-23 16:00N 59°19' E 018°06'0 0.0
2017-Jun-23 15:30N 59°19' E 018°06'0 0.0
2017-Jun-23 14:54N 59°19' E 018°06'0 0.0
2017-Jun-23 14:00N 59°19' E 018°06'0 0.0
2017-Jun-23 13:30N 59°19' E 018°06'0 0.0
2017-Jun-23 13:00N 59°19' E 018°06'0 0.0
2017-Jun-23 12:30N 59°19' E 018°06'0 0.0
2017-Jun-23 12:00N 59°19' E 018°06'0 0.0
2017-Jun-23 11:30N 59°19' E 018°06'0 0.0
2017-Jun-23 11:00N 59°19' E 018°06'0 0.0
2017-Jun-23 10:30N 59°19' E 018°06'0 0.0
2017-Jun-23 10:00N 59°19' E 018°06'0 0.0
2017-Jun-23 09:30N 59°19' E 018°06'0 0.0
2017-Jun-23 09:00N 59°19' E 018°06'0 0.0
2017-Jun-23 08:30N 59°19' E 018°06'0 0.0
2017-Jun-23 07:54N 59°19' E 018°06'0 0.0
2017-Jun-23 07:30N 59°19' E 018°06'0 0.0
2017-Jun-23 07:00N 59°19' E 018°06'0 0.0
2017-Jun-23 06:30N 59°19' E 018°06'0 0.0
2017-Jun-23 06:00N 59°19' E 018°06'0 0.0
2017-Jun-23 05:30N 59°19' E 018°06'0 0.0
2017-Jun-23 05:00N 59°19' E 018°06'0 0.0
2017-Jun-23 04:30N 59°19' E 018°06'0 0.0
2017-Jun-23 04:00N 59°19' E 018°06'0 0.0
2017-Jun-23 03:24N 59°19' E 018°06'0 0.0
2017-Jun-23 03:00N 59°19' E 018°06'0 0.0
2017-Jun-23 02:24N 59°19' E 018°06'0 0.0
2017-Jun-23 02:00N 59°19' E 018°06'0 0.0
2017-Jun-23 01:24N 59°19' E 018°06'0 0.0
2017-Jun-23 01:00N 59°19' E 018°06'0 0.0
2017-Jun-23 00:30N 59°19' E 018°06'0 0.0
2017-Jun-23 00:00N 59°19' E 018°06'0 0.0
2017-Jun-22 23:27N 59°19' E 018°06'0 0.0
2017-Jun-22 22:57N 59°19' E 018°06'0 0.0
2017-Jun-22 22:30N 59°19' E 018°06'0 0.0
2017-Jun-22 22:00N 59°19' E 018°06'0 0.0
2017-Jun-22 21:30N 59°19' E 018°06'0 0.0
2017-Jun-22 21:00N 59°19' E 018°06'0 0.0
2017-Jun-22 20:30N 59°19' E 018°06'0 0.0
2017-Jun-22 20:00N 59°19' E 018°06'0 0.0
2017-Jun-22 19:30N 59°19' E 018°06'0 0.0
2017-Jun-22 19:00N 59°19' E 018°06'0 0.0
2017-Jun-22 18:30N 59°19' E 018°06'0 0.0
2017-Jun-22 18:00N 59°19' E 018°06'0 0.0
2017-Jun-22 17:30N 59°19' E 018°06'0 0.0
2017-Jun-22 17:00N 59°19' E 018°06'0 0.0
2017-Jun-22 16:30N 59°19' E 018°06'0 0.0
2017-Jun-22 15:54N 59°19' E 018°06'0 0.0
2017-Jun-22 15:30N 59°19' E 018°06'0 0.0
2017-Jun-22 15:00N 59°19' E 018°06'0 0.0
2017-Jun-22 14:30N 59°19' E 018°06'0 0.0
2017-Jun-22 13:30N 59°19' E 018°06'0 0.0
2017-Jun-22 13:00N 59°19' E 018°06'0 0.0
2017-Jun-22 12:30N 59°19' E 018°06'0 0.2
2017-Jun-22 12:00N 59°19' E 018°06'1 2.3
2017-Jun-22 11:30N 59°19' E 018°09'3 5.2
2017-Jun-22 11:00N 59°21' E 018°13'3 5.2
2017-Jun-22 10:30N 59°22' E 018°17'1 0.1
2017-Jun-22 01:41N 59°21' E 018°19'0 0.0
2017-Jun-22 01:11N 59°21' E 018°19'0 0.0
2017-Jun-21 23:59N 59°21' E 018°19'0 0.0
2017-Jun-21 23:23N 59°21' E 018°19'0 0.0
2017-Jun-21 22:53N 59°21' E 018°19'0 0.0
2017-Jun-21 16:00N 59°21' E 018°19'1 2.2
2017-Jun-21 15:30N 59°22' E 018°18'1 1.2
2017-Jun-21 15:00N 59°22' E 018°19'1 1.6
2017-Jun-21 14:30N 59°22' E 018°21'2 1.7
2017-Jun-21 13:30N 59°22' E 018°24'1 1.5
2017-Jun-21 13:00N 59°22' E 018°26'1 2.3
2017-Jun-21 12:31N 59°23' E 018°27'2 3.7
2017-Jun-21 12:00N 59°24' E 018°26'1 2.6
2017-Jun-21 11:30N 59°25' E 018°24'2 3.0
2017-Jun-21 11:00N 59°25' E 018°27'7 0.3
2017-Jun-20 13:53N 59°22' E 018°38'1 2.6
2017-Jun-20 13:29N 59°23' E 018°40'2 2.4
2017-Jun-20 12:40N 59°24' E 018°37'1 3.5
2017-Jun-20 12:30N 59°24' E 018°35'2 3.5
2017-Jun-20 11:58N 59°25' E 018°32'2 3.2
2017-Jun-20 11:29N 59°26' E 018°31'2 3.1
2017-Jun-20 10:59N 59°28' E 018°30'2 4.6
2017-Jun-20 10:30N 59°30' E 018°31'2 3.4
2017-Jun-20 10:00N 59°31' E 018°33'2 4.0
2017-Jun-20 09:30N 59°33' E 018°35'1 2.7
2017-Jun-20 08:58N 59°33' E 018°38'0 0.0
2017-Jun-20 08:29N 59°33' E 018°38'0 0.0
2017-Jun-20 07:58N 59°33' E 018°38'0 0.0
2017-Jun-20 07:26N 59°33' E 018°38'0 0.0
2017-Jun-20 06:58N 59°33' E 018°38'0 0.0
2017-Jun-20 06:28N 59°33' E 018°38'0 0.0
2017-Jun-20 05:58N 59°33' E 018°38'0 0.0
2017-Jun-20 05:28N 59°33' E 018°38'0 0.0
2017-Jun-20 04:58N 59°33' E 018°38'0 0.0
2017-Jun-20 04:28N 59°33' E 018°38'0 0.0
2017-Jun-20 03:55N 59°33' E 018°38'0 0.0
2017-Jun-20 03:29N 59°33' E 018°38'0 0.0
2017-Jun-20 02:58N 59°33' E 018°38'0 0.0
2017-Jun-20 02:28N 59°33' E 018°38'0 0.0
2017-Jun-20 01:59N 59°33' E 018°38'0 0.0
2017-Jun-20 01:28N 59°33' E 018°38'0 0.0
2017-Jun-20 00:58N 59°33' E 018°38'0 0.0
2017-Jun-20 00:28N 59°33' E 018°38'0 0.0
2017-Jun-19 23:58N 59°33' E 018°38'0 0.0
2017-Jun-19 23:28N 59°33' E 018°38'0 0.0
2017-Jun-19 22:52N 59°33' E 018°38'0 0.0
2017-Jun-19 22:28N 59°33' E 018°38'0 0.0
2017-Jun-19 21:59N 59°33' E 018°38'0 0.0
2017-Jun-19 21:28N 59°33' E 018°38'0 0.0
2017-Jun-19 20:58N 59°33' E 018°38'0 0.0
2017-Jun-19 20:26N 59°33' E 018°38'0 0.0
2017-Jun-19 20:00N 59°33' E 018°38'0 0.0
2017-Jun-19 19:28N 59°33' E 018°38'0 0.0
2017-Jun-19 18:58N 59°33' E 018°38'0 0.0
2017-Jun-19 18:28N 59°33' E 018°38'0 0.0
2017-Jun-19 17:56N 59°33' E 018°38'0 0.0
2017-Jun-19 17:25N 59°33' E 018°38'0 0.0
2017-Jun-19 16:58N 59°33' E 018°38'0 0.0
2017-Jun-19 16:31N 59°33' E 018°38'1 2.6
2017-Jun-19 16:01N 59°33' E 018°35'0 0.0
2017-Jun-19 15:30N 59°33' E 018°35'0 0.1
2017-Jun-19 15:01N 59°33' E 018°35'6 6.3
2017-Jun-19 14:00N 59°36' E 018°46'2 3.4
2017-Jun-19 13:30N 59°38' E 018°46'1 0.5
2017-Jun-19 12:10N 59°37' E 018°45'0 0.0
2017-Jun-19 11:58N 59°37' E 018°45'0 0.0
2017-Jun-19 11:25N 59°37' E 018°45'0 0.0
2017-Jun-19 10:58N 59°37' E 018°45'0 0.0
2017-Jun-19 10:22N 59°37' E 018°45'0 0.0
2017-Jun-19 09:58N 59°37' E 018°45'0 0.0
2017-Jun-19 09:28N 59°37' E 018°45'0 0.0
2017-Jun-19 08:58N 59°37' E 018°45'0 0.0
2017-Jun-19 08:25N 59°37' E 018°45'0 0.0
2017-Jun-19 07:58N 59°37' E 018°45'0 0.0
2017-Jun-19 07:22N 59°37' E 018°45'0 0.0
2017-Jun-19 06:49N 59°37' E 018°45'0 0.0
2017-Jun-19 06:28N 59°37' E 018°45'0 0.0
2017-Jun-19 05:58N 59°37' E 018°45'0 0.0
2017-Jun-19 05:28N 59°37' E 018°45'0 0.0
2017-Jun-19 04:58N 59°37' E 018°45'0 0.0
2017-Jun-19 04:28N 59°37' E 018°45'0 0.0
2017-Jun-19 03:49N 59°37' E 018°45'0 0.0
2017-Jun-19 03:28N 59°37' E 018°45'0 0.0
2017-Jun-19 02:13N 59°37' E 018°45'0 0.0
2017-Jun-19 01:55N 59°37' E 018°45'0 0.0
2017-Jun-19 01:25N 59°37' E 018°45'0 0.0
2017-Jun-19 00:55N 59°37' E 018°45'0 0.0
2017-Jun-19 00:28N 59°37' E 018°45'0 0.0
2017-Jun-18 23:58N 59°37' E 018°45'0 0.0
2017-Jun-18 23:28N 59°37' E 018°45'0 0.0
2017-Jun-18 22:58N 59°37' E 018°45'0 0.0
2017-Jun-18 22:25N 59°37' E 018°45'0 0.0
2017-Jun-18 21:58N 59°37' E 018°45'0 0.0
2017-Jun-18 21:28N 59°37' E 018°45'0 0.0
2017-Jun-18 20:58N 59°37' E 018°45'0 0.0
2017-Jun-18 20:28N 59°37' E 018°45'0 0.0
2017-Jun-18 19:58N 59°37' E 018°45'0 0.0
2017-Jun-18 19:28N 59°37' E 018°45'0 0.0
2017-Jun-18 18:58N 59°37' E 018°45'0 0.0
2017-Jun-18 18:28N 59°37' E 018°45'0 0.0
2017-Jun-18 18:00N 59°37' E 018°45'2 3.1
2017-Jun-18 17:30N 59°38' E 018°48'2 3.7
2017-Jun-18 17:00N 59°38' E 018°51'3 5.7
2017-Jun-18 16:30N 59°40' E 018°56'3 5.5
2017-Jun-18 16:00N 59°42' E 019°01'2 3.6
2017-Jun-18 15:30N 59°43' E 019°04'1 2.6
2017-Jun-18 15:01N 59°43' E 019°05'2 1.6
2017-Jun-18 14:01N 59°45' E 019°05'2 3.3
2017-Jun-18 13:30N 59°46' E 019°03'1 1.0
2017-Jun-18 12:57N 59°46' E 019°02'0 0.0
2017-Jun-18 12:24N 59°46' E 019°02'0 0.0
2017-Jun-18 12:00N 59°46' E 019°02'0 0.0
2017-Jun-18 11:30N 59°46' E 019°02'0 0.0
2017-Jun-18 11:00N 59°46' E 019°02'0 0.0
2017-Jun-18 10:31N 59°46' E 019°02'1 1.1
2017-Jun-18 10:00N 59°46' E 019°03'3 6.0
2017-Jun-18 09:31N 59°45' E 019°09'3 5.1
2017-Jun-18 09:01N 59°45' E 019°14'3 5.8
2017-Jun-18 08:31N 59°46' E 019°19'2 4.8
2017-Jun-18 08:01N 59°45' E 019°24'0 0.9
2017-Jun-18 07:30N 59°45' E 019°24'0 0.0
2017-Jun-18 07:00N 59°45' E 019°24'0 0.0
2017-Jun-18 06:30N 59°45' E 019°24'0 0.0
2017-Jun-18 06:00N 59°45' E 019°24'0 0.0
2017-Jun-18 05:30N 59°45' E 019°24'0 0.0
2017-Jun-18 05:00N 59°45' E 019°24'0 0.0
2017-Jun-18 04:30N 59°45' E 019°24'0 0.0
2017-Jun-18 04:00N 59°45' E 019°24'0 0.0
2017-Jun-18 03:30N 59°45' E 019°24'0 0.0
2017-Jun-18 03:00N 59°45' E 019°24'0 0.0
2017-Jun-18 02:30N 59°45' E 019°24'0 0.0
2017-Jun-18 02:00N 59°45' E 019°24'0 0.0
2017-Jun-18 01:30N 59°45' E 019°24'0 0.0
2017-Jun-18 01:00N 59°45' E 019°24'0 0.0
2017-Jun-18 00:31N 59°45' E 019°24'0 0.0
2017-Jun-18 00:01N 59°45' E 019°24'0 0.0
2017-Jun-17 23:30N 59°45' E 019°24'0 0.0
2017-Jun-17 23:00N 59°45' E 019°24'0 0.0
2017-Jun-17 22:30N 59°45' E 019°24'0 0.0
2017-Jun-17 22:00N 59°45' E 019°24'0 0.0
2017-Jun-17 21:30N 59°45' E 019°24'0 0.0
2017-Jun-17 21:00N 59°45' E 019°24'0 0.0
2017-Jun-17 20:30N 59°45' E 019°24'0 0.0
2017-Jun-17 20:00N 59°45' E 019°24'0 0.0
2017-Jun-17 19:30N 59°45' E 019°24'0 0.0
2017-Jun-17 19:00N 59°45' E 019°24'0 0.0
2017-Jun-17 18:30N 59°45' E 019°24'0 0.0
2017-Jun-17 18:00N 59°45' E 019°24'0 0.0
2017-Jun-17 17:30N 59°45' E 019°24'0 0.0
2017-Jun-17 17:00N 59°45' E 019°24'0 0.0
2017-Jun-17 16:30N 59°45' E 019°24'0 0.0
2017-Jun-17 16:00N 59°45' E 019°24'0 0.0
2017-Jun-17 15:30N 59°45' E 019°24'0 0.5
2017-Jun-17 15:00N 59°45' E 019°24'5 4.8
2017-Jun-17 14:00N 59°45' E 019°15'3 5.6
2017-Jun-17 13:30N 59°43' E 019°11'3 5.9
2017-Jun-17 13:00N 59°40' E 019°10'3 5.8
2017-Jun-17 12:30N 59°37' E 019°08'3 5.3
2017-Jun-17 12:00N 59°34' E 019°08'3 5.2
2017-Jun-17 11:30N 59°32' E 019°07'2 3.9
2017-Jun-17 11:01N 59°30' E 019°05'2 3.3
2017-Jun-17 10:30N 59°29' E 019°03'3 5.1
2017-Jun-17 10:00N 59°27' E 018°59'  
Track history (hours):
 
Tides and Currents Weather Stations Pressure Air Temp Water Temp Dewpoint Dewpoint Depression Visibility Wind Speed Wind Dir Waves Ship Positions

Ellen (Sweden)

Ship's website: http://www.syellen.org/Skolsegelfartyget_Ellen/Hem.html

Last reported at 2017-Jun-27 09:58 UTC. Time now 2017-Jun-27 10:23 UTC.
Position N 59°14' E 018°25'.

Length 22 m; draft 2.2 m.

Type: Sailing vessel. MMSI: 265508900.

Date/timePositionNaut miles runAvg speedWind from/ knotsBaromVisibWave heightAir tempDewpointWater temp
2017-Jun-27 09:58N 59°14' E 018°25'1 0.9
2017-Jun-27 09:09N 59°14' E 018°24'0 0.0
2017-Jun-27 08:51N 59°14' E 018°24'0 0.0
2017-Jun-27 08:27N 59°14' E 018°24'0 0.0
2017-Jun-27 07:57N 59°14' E 018°24'0 0.0
2017-Jun-27 07:27N 59°14' E 018°24'0 0.0
2017-Jun-27 06:57N 59°14' E 018°24'0 0.0
2017-Jun-27 06:27N 59°14' E 018°24'0 0.0
2017-Jun-27 05:57N 59°14' E 018°24'0 0.0
2017-Jun-27 05:21N 59°14' E 018°24'0 0.0
2017-Jun-27 04:57N 59°14' E 018°24'0 0.0
2017-Jun-27 04:27N 59°14' E 018°24'0 0.0
2017-Jun-27 03:57N 59°14' E 018°24'0 0.0
2017-Jun-27 03:27N 59°14' E 018°24'0 0.0
2017-Jun-27 02:57N 59°14' E 018°24'0 0.0
2017-Jun-27 02:27N 59°14' E 018°24'0 0.0
2017-Jun-27 01:57N 59°14' E 018°24'0 0.0
2017-Jun-27 01:15N 59°14' E 018°24'0 0.0
2017-Jun-27 00:45N 59°14' E 018°24'0 0.0
2017-Jun-27 00:21N 59°14' E 018°24'0 0.0
2017-Jun-26 23:51N 59°14' E 018°24'0 0.0
2017-Jun-26 23:27N 59°14' E 018°24'0 0.0
2017-Jun-26 22:51N 59°14' E 018°24'0 0.0
2017-Jun-26 22:27N 59°14' E 018°24'0 0.0
2017-Jun-26 21:56N 59°14' E 018°24'0 0.0
2017-Jun-26 21:21N 59°14' E 018°24'0 0.0
2017-Jun-26 20:45N 59°14' E 018°24'0 0.0
2017-Jun-26 20:20N 59°14' E 018°24'0 0.0
2017-Jun-26 19:57N 59°14' E 018°24'0 0.0
2017-Jun-26 19:27N 59°14' E 018°24'0 0.0
2017-Jun-26 18:50N 59°14' E 018°24'0 0.0
2017-Jun-26 18:27N 59°14' E 018°24'0 0.0
2017-Jun-26 17:57N 59°14' E 018°24'0 0.0
2017-Jun-26 17:27N 59°14' E 018°24'0 0.0
2017-Jun-26 16:57N 59°14' E 018°24'0 0.0
2017-Jun-26 16:08N 59°14' E 018°24'0 0.0
2017-Jun-26 15:56N 59°14' E 018°24'0 0.0
2017-Jun-26 15:27N 59°14' E 018°24'0 0.0
2017-Jun-26 14:44N 59°14' E 018°24'0 0.0
2017-Jun-26 14:21N 59°14' E 018°24'0 0.0
2017-Jun-26 13:26N 59°14' E 018°24'0 0.0
2017-Jun-26 12:50N 59°14' E 018°24'1 1.9
2017-Jun-26 12:26N 59°14' E 018°25'1 3.0
2017-Jun-26 12:00N 59°15' E 018°24'2 4.6
2017-Jun-26 11:31N 59°16' E 018°21'2 3.7
2017-Jun-26 10:57N 59°18' E 018°19'2 3.4
2017-Jun-26 10:30N 59°18' E 018°16'3 5.1
2017-Jun-26 10:00N 59°20' E 018°13'1 1.5
2017-Jun-26 09:30N 59°20' E 018°12'3 5.7
2017-Jun-26 09:01N 59°19' E 018°06'0 0.0
2017-Jun-26 08:28N 59°19' E 018°06'0 0.0
2017-Jun-26 07:58N 59°19' E 018°06'0 0.0
2017-Jun-26 07:28N 59°19' E 018°06'0 0.0
2017-Jun-26 06:58N 59°19' E 018°06'0 0.0
2017-Jun-26 06:25N 59°19' E 018°06'0 0.0
2017-Jun-26 06:01N 59°19' E 018°06'0 0.0
2017-Jun-26 05:28N 59°19' E 018°06'0 0.0
2017-Jun-26 04:58N 59°19' E 018°06'0 0.0
2017-Jun-26 04:28N 59°19' E 018°06'0 0.0
2017-Jun-26 03:58N 59°19' E 018°06'0 0.0
2017-Jun-26 03:28N 59°19' E 018°06'0 0.0
2017-Jun-26 02:58N 59°19' E 018°06'0 0.0
2017-Jun-26 02:28N 59°19' E 018°06'0 0.0
2017-Jun-26 02:00N 59°19' E 018°06'0 0.0
2017-Jun-26 01:27N 59°19' E 018°06'0 0.0
2017-Jun-26 00:58N 59°19' E 018°06'0 0.0
2017-Jun-26 00:28N 59°19' E 018°06'0 0.0
2017-Jun-25 23:58N 59°19' E 018°06'0 0.0
2017-Jun-25 23:30N 59°19' E 018°06'0 0.0
2017-Jun-25 22:58N 59°19' E 018°06'0 0.0
2017-Jun-25 22:31N 59°19' E 018°06'0 0.0
2017-Jun-25 22:01N 59°19' E 018°06'0 0.0
2017-Jun-25 21:28N 59°19' E 018°06'0 0.0
2017-Jun-25 21:01N 59°19' E 018°06'0 0.0
2017-Jun-25 20:31N 59°19' E 018°06'0 0.0
2017-Jun-25 20:00N 59°19' E 018°06'0 0.0
2017-Jun-25 19:31N 59°19' E 018°06'0 0.0
2017-Jun-25 18:58N 59°19' E 018°06'0 0.0
2017-Jun-25 18:25N 59°19' E 018°06'0 0.0
2017-Jun-25 17:55N 59°19' E 018°06'0 0.0
2017-Jun-25 17:19N 59°19' E 018°06'0 0.0
2017-Jun-25 16:55N 59°19' E 018°06'0 0.0
2017-Jun-25 16:13N 59°19' E 018°06'0 0.0
2017-Jun-25 15:55N 59°19' E 018°06'0 0.0
2017-Jun-25 15:28N 59°19' E 018°06'0 0.0
2017-Jun-25 15:01N 59°19' E 018°06'0 0.0
2017-Jun-25 14:31N 59°19' E 018°06'0 0.0
2017-Jun-25 13:27N 59°19' E 018°06'0 0.0
2017-Jun-25 13:01N 59°19' E 018°06'0 0.0
2017-Jun-25 12:30N 59°19' E 018°06'0 0.0
2017-Jun-25 11:58N 59°19' E 018°06'0 0.0
2017-Jun-25 11:30N 59°19' E 018°06'0 0.0
2017-Jun-25 11:00N 59°19' E 018°06'0 0.0
2017-Jun-25 10:28N 59°19' E 018°06'0 0.0
2017-Jun-25 10:01N 59°19' E 018°06'0 0.0
2017-Jun-25 09:27N 59°19' E 018°06'0 0.0
2017-Jun-25 09:00N 59°19' E 018°06'0 0.0
2017-Jun-25 08:27N 59°19' E 018°06'0 0.0
2017-Jun-25 08:00N 59°19' E 018°06'0 0.0
2017-Jun-25 07:31N 59°19' E 018°06'0 0.0
2017-Jun-25 07:00N 59°19' E 018°06'0 0.0
2017-Jun-25 06:27N 59°19' E 018°06'0 0.0
2017-Jun-25 06:01N 59°19' E 018°06'0 0.0
2017-Jun-25 05:30N 59°19' E 018°06'0 0.0
2017-Jun-25 05:01N 59°19' E 018°06'0 0.0
2017-Jun-25 04:31N 59°19' E 018°06'0 0.0
2017-Jun-25 04:00N 59°19' E 018°06'0 0.0
2017-Jun-25 03:30N 59°19' E 018°06'0 0.0
2017-Jun-25 03:00N 59°19' E 018°06'0 0.0
2017-Jun-25 02:31N 59°19' E 018°06'0 0.0
2017-Jun-25 02:00N 59°19' E 018°06'0 0.0
2017-Jun-25 01:31N 59°19' E 018°06'0 0.0
2017-Jun-25 01:00N 59°19' E 018°06'0 0.0
2017-Jun-25 00:30N 59°19' E 018°06'0 0.0
2017-Jun-24 23:57N 59°19' E 018°06'0 0.0
2017-Jun-24 23:31N 59°19' E 018°06'0 0.0
2017-Jun-24 23:00N 59°19' E 018°06'0 0.0
2017-Jun-24 22:30N 59°19' E 018°06'0 0.0
2017-Jun-24 22:00N 59°19' E 018°06'0 0.0
2017-Jun-24 21:30N 59°19' E 018°06'0 0.0
2017-Jun-24 21:00N 59°19' E 018°06'0 0.0
2017-Jun-24 20:30N 59°19' E 018°06'0 0.0
2017-Jun-24 20:00N 59°19' E 018°06'0 0.0
2017-Jun-24 19:31N 59°19' E 018°06'0 0.0
2017-Jun-24 18:55N 59°19' E 018°06'0 0.0
2017-Jun-24 18:30N 59°19' E 018°06'0 0.0
2017-Jun-24 18:00N 59°19' E 018°06'0 0.0
2017-Jun-24 17:25N 59°19' E 018°06'0 0.0
2017-Jun-24 17:00N 59°19' E 018°06'0 0.0
2017-Jun-24 16:25N 59°19' E 018°06'0 0.0
2017-Jun-24 16:00N 59°19' E 018°06'0 0.0
2017-Jun-24 15:30N 59°19' E 018°06'0 0.0
2017-Jun-24 15:01N 59°19' E 018°06'0 0.0
2017-Jun-24 14:00N 59°19' E 018°06'0 0.0
2017-Jun-24 13:30N 59°19' E 018°06'0 0.0
2017-Jun-24 13:00N 59°19' E 018°06'0 0.0
2017-Jun-24 12:30N 59°19' E 018°06'0 0.0
2017-Jun-24 12:01N 59°19' E 018°06'0 0.0
2017-Jun-24 11:30N 59°19' E 018°06'0 0.0
2017-Jun-24 10:54N 59°19' E 018°06'0 0.0
2017-Jun-24 10:31N 59°19' E 018°06'0 0.0
2017-Jun-24 10:01N 59°19' E 018°06'0 0.0
2017-Jun-24 09:30N 59°19' E 018°06'0 0.0
2017-Jun-24 09:00N 59°19' E 018°06'0 0.0
2017-Jun-24 08:24N 59°19' E 018°06'0 0.0
2017-Jun-24 08:00N 59°19' E 018°06'0 0.0
2017-Jun-24 07:30N 59°19' E 018°06'0 0.0
2017-Jun-24 07:00N 59°19' E 018°06'0 0.0
2017-Jun-24 06:30N 59°19' E 018°06'0 0.0
2017-Jun-24 06:00N 59°19' E 018°06'0 0.0
2017-Jun-24 05:30N 59°19' E 018°06'0 0.0
2017-Jun-24 05:00N 59°19' E 018°06'0 0.0
2017-Jun-24 04:30N 59°19' E 018°06'0 0.0
2017-Jun-24 04:00N 59°19' E 018°06'0 0.0
2017-Jun-24 03:30N 59°19' E 018°06'0 0.0
2017-Jun-24 03:00N 59°19' E 018°06'0 0.0
2017-Jun-24 02:30N 59°19' E 018°06'0 0.0
2017-Jun-24 02:00N 59°19' E 018°06'0 0.0
2017-Jun-24 01:30N 59°19' E 018°06'0 0.0
2017-Jun-24 01:00N 59°19' E 018°06'0 0.0
2017-Jun-24 00:30N 59°19' E 018°06'0 0.0
2017-Jun-24 00:00N 59°19' E 018°06'0 0.0
2017-Jun-23 23:30N 59°19' E 018°06'0 0.0
2017-Jun-23 23:00N 59°19' E 018°06'0 0.0
2017-Jun-23 22:30N 59°19' E 018°06'0 0.0
2017-Jun-23 21:54N 59°19' E 018°06'0 0.0
2017-Jun-23 21:30N 59°19' E 018°06'0 0.0
2017-Jun-23 21:00N 59°19' E 018°06'0 0.0
2017-Jun-23 20:24N 59°19' E 018°06'0 0.0
2017-Jun-23 20:00N 59°19' E 018°06'0 0.0
2017-Jun-23 19:30N 59°19' E 018°06'0 0.0
2017-Jun-23 19:00N 59°19' E 018°06'0 0.0
2017-Jun-23 18:30N 59°19' E 018°06'0 0.0
2017-Jun-23 18:00N 59°19' E 018°06'0 0.0
2017-Jun-23 17:30N 59°19' E 018°06'0 0.0
2017-Jun-23 17:00N 59°19' E 018°06'0 0.0
2017-Jun-23 16:30N 59°19' E 018°06'0 0.0
2017-Jun-23 16:00N 59°19' E 018°06'0 0.0
2017-Jun-23 15:30N 59°19' E 018°06'0 0.0
2017-Jun-23 14:54N 59°19' E 018°06'0 0.0
2017-Jun-23 14:00N 59°19' E 018°06'0 0.0
2017-Jun-23 13:30N 59°19' E 018°06'0 0.0
2017-Jun-23 13:00N 59°19' E 018°06'0 0.0
2017-Jun-23 12:30N 59°19' E 018°06'0 0.0
2017-Jun-23 12:00N 59°19' E 018°06'0 0.0
2017-Jun-23 11:30N 59°19' E 018°06'0 0.0
2017-Jun-23 11:00N 59°19' E 018°06'0 0.0
2017-Jun-23 10:30N 59°19' E 018°06'0 0.0
2017-Jun-23 10:00N 59°19' E 018°06'0 0.0
2017-Jun-23 09:30N 59°19' E 018°06'0 0.0
2017-Jun-23 09:00N 59°19' E 018°06'0 0.0
2017-Jun-23 08:30N 59°19' E 018°06'0 0.0
2017-Jun-23 07:54N 59°19' E 018°06'0 0.0
2017-Jun-23 07:30N 59°19' E 018°06'0 0.0
2017-Jun-23 07:00N 59°19' E 018°06'0 0.0
2017-Jun-23 06:30N 59°19' E 018°06'0 0.0
2017-Jun-23 06:00N 59°19' E 018°06'0 0.0
2017-Jun-23 05:30N 59°19' E 018°06'0 0.0
2017-Jun-23 05:00N 59°19' E 018°06'0 0.0
2017-Jun-23 04:30N 59°19' E 018°06'0 0.0
2017-Jun-23 04:00N 59°19' E 018°06'0 0.0
2017-Jun-23 03:24N 59°19' E 018°06'0 0.0
2017-Jun-23 03:00N 59°19' E 018°06'0 0.0
2017-Jun-23 02:24N 59°19' E 018°06'0 0.0
2017-Jun-23 02:00N 59°19' E 018°06'0 0.0
2017-Jun-23 01:24N 59°19' E 018°06'0 0.0
2017-Jun-23 01:00N 59°19' E 018°06'0 0.0
2017-Jun-23 00:30N 59°19' E 018°06'0 0.0
2017-Jun-23 00:00N 59°19' E 018°06'0 0.0
2017-Jun-22 23:27N 59°19' E 018°06'0 0.0
2017-Jun-22 22:57N 59°19' E 018°06'0 0.0
2017-Jun-22 22:30N 59°19' E 018°06'0 0.0
2017-Jun-22 22:00N 59°19' E 018°06'0 0.0
2017-Jun-22 21:30N 59°19' E 018°06'0 0.0
2017-Jun-22 21:00N 59°19' E 018°06'0 0.0
2017-Jun-22 20:30N 59°19' E 018°06'0 0.0
2017-Jun-22 20:00N 59°19' E 018°06'0 0.0
2017-Jun-22 19:30N 59°19' E 018°06'0 0.0
2017-Jun-22 19:00N 59°19' E 018°06'0 0.0
2017-Jun-22 18:30N 59°19' E 018°06'0 0.0
2017-Jun-22 18:00N 59°19' E 018°06'0 0.0
2017-Jun-22 17:30N 59°19' E 018°06'0 0.0
2017-Jun-22 17:00N 59°19' E 018°06'0 0.0
2017-Jun-22 16:30N 59°19' E 018°06'0 0.0
2017-Jun-22 15:54N 59°19' E 018°06'0 0.0
2017-Jun-22 15:30N 59°19' E 018°06'0 0.0
2017-Jun-22 15:00N 59°19' E 018°06'0 0.0
2017-Jun-22 14:30N 59°19' E 018°06'0 0.0
2017-Jun-22 13:30N 59°19' E 018°06'0 0.0
2017-Jun-22 13:00N 59°19' E 018°06'0 0.0
2017-Jun-22 12:30N 59°19' E 018°06'0 0.2
2017-Jun-22 12:00N 59°19' E 018°06'1 2.3
2017-Jun-22 11:30N 59°19' E 018°09'3 5.2
2017-Jun-22 11:00N 59°21' E 018°13'3 5.2
2017-Jun-22 10:30N 59°22' E 018°17'1 0.1
2017-Jun-22 01:41N 59°21' E 018°19'0 0.0
2017-Jun-22 01:11N 59°21' E 018°19'0 0.0
2017-Jun-21 23:59N 59°21' E 018°19'0 0.0
2017-Jun-21 23:23N 59°21' E 018°19'0 0.0
2017-Jun-21 22:53N 59°21' E 018°19'0 0.0
2017-Jun-21 16:00N 59°21' E 018°19'1 2.2
2017-Jun-21 15:30N 59°22' E 018°18'1 1.2
2017-Jun-21 15:00N 59°22' E 018°19'1 1.6
2017-Jun-21 14:30N 59°22' E 018°21'2 1.7
2017-Jun-21 13:30N 59°22' E 018°24'1 1.5
2017-Jun-21 13:00N 59°22' E 018°26'1 2.3
2017-Jun-21 12:31N 59°23' E 018°27'2 3.7
2017-Jun-21 12:00N 59°24' E 018°26'1 2.6
2017-Jun-21 11:30N 59°25' E 018°24'2 3.0
2017-Jun-21 11:00N 59°25' E 018°27'7 0.3
2017-Jun-20 13:53N 59°22' E 018°38'1 2.6
2017-Jun-20 13:29N 59°23' E 018°40'2 2.4
2017-Jun-20 12:40N 59°24' E 018°37'1 3.5
2017-Jun-20 12:30N 59°24' E 018°35'2 3.5
2017-Jun-20 11:58N 59°25' E 018°32'2 3.2
2017-Jun-20 11:29N 59°26' E 018°31'2 3.1
2017-Jun-20 10:59N 59°28' E 018°30'2 4.6
2017-Jun-20 10:30N 59°30' E 018°31'2 3.4
2017-Jun-20 10:00N 59°31' E 018°33'2 4.0
2017-Jun-20 09:30N 59°33' E 018°35'1 2.7
2017-Jun-20 08:58N 59°33' E 018°38'0 0.0
2017-Jun-20 08:29N 59°33' E 018°38'0 0.0
2017-Jun-20 07:58N 59°33' E 018°38'0 0.0
2017-Jun-20 07:26N 59°33' E 018°38'0 0.0
2017-Jun-20 06:58N 59°33' E 018°38'0 0.0
2017-Jun-20 06:28N 59°33' E 018°38'0 0.0
2017-Jun-20 05:58N 59°33' E 018°38'0 0.0
2017-Jun-20 05:28N 59°33' E 018°38'0 0.0
2017-Jun-20 04:58N 59°33' E 018°38'0 0.0
2017-Jun-20 04:28N 59°33' E 018°38'0 0.0
2017-Jun-20 03:55N 59°33' E 018°38'0 0.0
2017-Jun-20 03:29N 59°33' E 018°38'0 0.0
2017-Jun-20 02:58N 59°33' E 018°38'0 0.0
2017-Jun-20 02:28N 59°33' E 018°38'0 0.0
2017-Jun-20 01:59N 59°33' E 018°38'0 0.0
2017-Jun-20 01:28N 59°33' E 018°38'0 0.0
2017-Jun-20 00:58N 59°33' E 018°38'0 0.0
2017-Jun-20 00:28N 59°33' E 018°38'0 0.0
2017-Jun-19 23:58N 59°33' E 018°38'0 0.0
2017-Jun-19 23:28N 59°33' E 018°38'0 0.0
2017-Jun-19 22:52N 59°33' E 018°38'0 0.0
2017-Jun-19 22:28N 59°33' E 018°38'0 0.0
2017-Jun-19 21:59N 59°33' E 018°38'0 0.0
2017-Jun-19 21:28N 59°33' E 018°38'0 0.0
2017-Jun-19 20:58N 59°33' E 018°38'0 0.0
2017-Jun-19 20:26N 59°33' E 018°38'0 0.0
2017-Jun-19 20:00N 59°33' E 018°38'0 0.0
2017-Jun-19 19:28N 59°33' E 018°38'0 0.0
2017-Jun-19 18:58N 59°33' E 018°38'0 0.0
2017-Jun-19 18:28N 59°33' E 018°38'0 0.0
2017-Jun-19 17:56N 59°33' E 018°38'0 0.0
2017-Jun-19 17:25N 59°33' E 018°38'0 0.0
2017-Jun-19 16:58N 59°33' E 018°38'0 0.0
2017-Jun-19 16:31N 59°33' E 018°38'1 2.6
2017-Jun-19 16:01N 59°33' E 018°35'0 0.0
2017-Jun-19 15:30N 59°33' E 018°35'0 0.1
2017-Jun-19 15:01N 59°33' E 018°35'6 6.3
2017-Jun-19 14:00N 59°36' E 018°46'2 3.4
2017-Jun-19 13:30N 59°38' E 018°46'1 0.5
2017-Jun-19 12:10N 59°37' E 018°45'0 0.0
2017-Jun-19 11:58N 59°37' E 018°45'0 0.0
2017-Jun-19 11:25N 59°37' E 018°45'0 0.0
2017-Jun-19 10:58N 59°37' E 018°45'0 0.0
2017-Jun-19 10:22N 59°37' E 018°45'0 0.0
2017-Jun-19 09:58N 59°37' E 018°45'0 0.0
2017-Jun-19 09:28N 59°37' E 018°45'0 0.0
2017-Jun-19 08:58N 59°37' E 018°45'0 0.0
2017-Jun-19 08:25N 59°37' E 018°45'0 0.0
2017-Jun-19 07:58N 59°37' E 018°45'0 0.0
2017-Jun-19 07:22N 59°37' E 018°45'0 0.0
2017-Jun-19 06:49N 59°37' E 018°45'0 0.0
2017-Jun-19 06:28N 59°37' E 018°45'0 0.0
2017-Jun-19 05:58N 59°37' E 018°45'0 0.0
2017-Jun-19 05:28N 59°37' E 018°45'0 0.0
2017-Jun-19 04:58N 59°37' E 018°45'0 0.0
2017-Jun-19 04:28N 59°37' E 018°45'0 0.0
2017-Jun-19 03:49N 59°37' E 018°45'0 0.0
2017-Jun-19 03:28N 59°37' E 018°45'0 0.0
2017-Jun-19 02:13N 59°37' E 018°45'0 0.0
2017-Jun-19 01:55N 59°37' E 018°45'0 0.0
2017-Jun-19 01:25N 59°37' E 018°45'0 0.0
2017-Jun-19 00:55N 59°37' E 018°45'0 0.0
2017-Jun-19 00:28N 59°37' E 018°45'0 0.0
2017-Jun-18 23:58N 59°37' E 018°45'0 0.0
2017-Jun-18 23:28N 59°37' E 018°45'0 0.0
2017-Jun-18 22:58N 59°37' E 018°45'0 0.0
2017-Jun-18 22:25N 59°37' E 018°45'0 0.0
2017-Jun-18 21:58N 59°37' E 018°45'0 0.0
2017-Jun-18 21:28N 59°37' E 018°45'0 0.0
2017-Jun-18 20:58N 59°37' E 018°45'0 0.0
2017-Jun-18 20:28N 59°37' E 018°45'0 0.0
2017-Jun-18 19:58N 59°37' E 018°45'0 0.0
2017-Jun-18 19:28N 59°37' E 018°45'0 0.0
2017-Jun-18 18:58N 59°37' E 018°45'0 0.0
2017-Jun-18 18:28N 59°37' E 018°45'0 0.0
2017-Jun-18 18:00N 59°37' E 018°45'2 3.1
2017-Jun-18 17:30N 59°38' E 018°48'2 3.7
2017-Jun-18 17:00N 59°38' E 018°51'3 5.7
2017-Jun-18 16:30N 59°40' E 018°56'3 5.5
2017-Jun-18 16:00N 59°42' E 019°01'2 3.6
2017-Jun-18 15:30N 59°43' E 019°04'1 2.6
2017-Jun-18 15:01N 59°43' E 019°05'2 1.6
2017-Jun-18 14:01N 59°45' E 019°05'2 3.3
2017-Jun-18 13:30N 59°46' E 019°03'1 1.0
2017-Jun-18 12:57N 59°46' E 019°02'0 0.0
2017-Jun-18 12:24N 59°46' E 019°02'0 0.0
2017-Jun-18 12:00N 59°46' E 019°02'0 0.0
2017-Jun-18 11:30N 59°46' E 019°02'0 0.0
2017-Jun-18 11:00N 59°46' E 019°02'0 0.0
2017-Jun-18 10:31N 59°46' E 019°02'1 1.1
2017-Jun-18 10:00N 59°46' E 019°03'3 6.0
2017-Jun-18 09:31N 59°45' E 019°09'3 5.1
2017-Jun-18 09:01N 59°45' E 019°14'3 5.8
2017-Jun-18 08:31N 59°46' E 019°19'2 4.8
2017-Jun-18 08:01N 59°45' E 019°24'0 0.9
2017-Jun-18 07:30N 59°45' E 019°24'0 0.0
2017-Jun-18 07:00N 59°45' E 019°24'0 0.0
2017-Jun-18 06:30N 59°45' E 019°24'0 0.0
2017-Jun-18 06:00N 59°45' E 019°24'0 0.0
2017-Jun-18 05:30N 59°45' E 019°24'0 0.0
2017-Jun-18 05:00N 59°45' E 019°24'0 0.0
2017-Jun-18 04:30N 59°45' E 019°24'0 0.0
2017-Jun-18 04:00N 59°45' E 019°24'0 0.0
2017-Jun-18 03:30N 59°45' E 019°24'0 0.0
2017-Jun-18 03:00N 59°45' E 019°24'0 0.0
2017-Jun-18 02:30N 59°45' E 019°24'0 0.0
2017-Jun-18 02:00N 59°45' E 019°24'0 0.0
2017-Jun-18 01:30N 59°45' E 019°24'0 0.0
2017-Jun-18 01:00N 59°45' E 019°24'0 0.0
2017-Jun-18 00:31N 59°45' E 019°24'0 0.0
2017-Jun-18 00:01N 59°45' E 019°24'0 0.0
2017-Jun-17 23:30N 59°45' E 019°24'0 0.0
2017-Jun-17 23:00N 59°45' E 019°24'0 0.0
2017-Jun-17 22:30N 59°45' E 019°24'0 0.0
2017-Jun-17 22:00N 59°45' E 019°24'0 0.0
2017-Jun-17 21:30N 59°45' E 019°24'0 0.0
2017-Jun-17 21:00N 59°45' E 019°24'0 0.0
2017-Jun-17 20:30N 59°45' E 019°24'0 0.0
2017-Jun-17 20:00N 59°45' E 019°24'0 0.0
2017-Jun-17 19:30N 59°45' E 019°24'0 0.0
2017-Jun-17 19:00N 59°45' E 019°24'0 0.0
2017-Jun-17 18:30N 59°45' E 019°24'0 0.0
2017-Jun-17 18:00N 59°45' E 019°24'0 0.0
2017-Jun-17 17:30N 59°45' E 019°24'0 0.0
2017-Jun-17 17:00N 59°45' E 019°24'0 0.0
2017-Jun-17 16:30N 59°45' E 019°24'0 0.0
2017-Jun-17 16:00N 59°45' E 019°24'0 0.0
2017-Jun-17 15:30N 59°45' E 019°24'0 0.5
2017-Jun-17 15:00N 59°45' E 019°24'5 4.8
2017-Jun-17 14:00N 59°45' E 019°15'3 5.6
2017-Jun-17 13:30N 59°43' E 019°11'3 5.9
2017-Jun-17 13:00N 59°40' E 019°10'3 5.8
2017-Jun-17 12:30N 59°37' E 019°08'3 5.3
2017-Jun-17 12:00N 59°34' E 019°08'3 5.2
2017-Jun-17 11:30N 59°32' E 019°07'2 3.9
2017-Jun-17 11:01N 59°30' E 019°05'2 3.3
2017-Jun-17 10:30N 59°29' E 019°03'3 5.1
2017-Jun-17 10:00N 59°27' E 018°59'  

Dump ship's entire track history